Time;durP1;ratioP1;P1;durP2;ratioP2;P2;SDS_P1;SDS_P2;PMS_P1;PMS_P2;Temp;Humidity;BMP_temperature;BMP_pressure;BME280_temperature;BME280_humidity;BME280_pressure;Samples;Min_cycle;Max_cycle;Signal;HPM_P1;HPM_P2
2023/06/23 00:02:10;;;;;;;;;;;;;;;34.67;30.72;98043.47;5040721;28;19966;-91
2023/06/23 00:04:36;;;;;;;;;;;;;;;34.49;30.93;98037.31;5042058;28;19920;-92
2023/06/23 00:07:04;;;;;;;;;;;;;;;34.20;31.58;98021.28;5053540;28;19923;-91
2023/06/23 00:09:30;;;;;;;;;;;;;;;34.42;31.07;98015.75;5050697;28;19917;-91
2023/06/23 00:11:56;;;;;;;;;;;;;;;34.51;30.71;98009.88;5043969;28;19921;-91
2023/06/23 00:14:22;;;;;;;;;;;;;;;34.47;31.18;98006.44;5049846;28;19921;-91
2023/06/23 00:16:49;;;;;;;;;;;;;;;34.44;30.95;97998.13;5048198;28;19921;-90
2023/06/23 00:19:16;;;;;;;;;;;;;;;34.27;31.49;98000.06;5051801;28;19936;-91
2023/06/23 00:21:44;;;;;;;;;;;;;;;34.43;30.99;98002.25;5034999;28;19917;-91
2023/06/23 00:24:11;;;;;;;;;;;;;;;34.39;31.40;98002.50;5051190;28;19948;-90
2023/06/23 00:26:37;;;;;;;;;;;;;;;34.48;31.46;97990.91;5045579;28;19925;-90
2023/06/23 00:29:05;;;;;;;;;;;;;;;34.52;30.95;97987.81;5048834;28;19966;-90
2023/06/23 00:31:31;;;;;;;;;;;;;;;34.75;30.81;97987.47;5048074;28;19929;-90
2023/06/23 00:33:57;;;;;;;;;;;;;;;34.97;30.59;97986.03;5043684;28;19921;-91
2023/06/23 00:36:24;;;;;;;;;;;;;;;34.78;30.42;97977.13;5053160;28;20399;-91
2023/06/23 00:38:50;;;;;;;;;;;;;;;34.44;31.41;97981.81;5051812;28;19920;-91
2023/06/23 00:41:16;;;;;;;;;;;;;;;34.42;31.35;97981.53;5049238;28;19925;-91
2023/06/23 00:43:49;;;;;;;;;;;;;;;34.40;31.28;97984.09;5042347;28;19925;-91
2023/06/23 00:46:20;;;;;;;;;;;;;;;34.28;31.61;97982.47;5047215;28;19925;-90
2023/06/23 00:48:46;;;;;;;;;;;;;;;34.35;31.63;97981.22;5052850;28;19928;-91
2023/06/23 00:51:14;;;;;;;;;;;;;;;34.49;31.25;97983.94;5041425;28;19921;-90
2023/06/23 00:53:41;;;;;;;;;;;;;;;34.02;32.24;97976.78;5054493;28;20392;-91
2023/06/23 00:56:07;;;;;;;;;;;;;;;33.62;32.57;97968.38;5048377;28;19927;-91
2023/06/23 00:58:35;;;;;;;;;;;;;;;32.94;33.81;97976.56;5053441;28;19956;-91
2023/06/23 01:01:03;;;;;;;;;;;;;;;32.92;33.87;97976.28;5040251;28;20008;-90
2023/06/23 01:03:29;;;;;;;;;;;;;;;33.02;34.00;97974.13;5055581;28;19920;-91
2023/06/23 01:05:57;;;;;;;;;;;;;;;32.83;34.21;97965.06;5053650;28;20024;-91
2023/06/23 01:08:34;;;;;;;;;;;;;;;32.95;34.16;97963.94;5068608;28;19913;-90
2023/06/23 01:11:20;;;;;;;;;;;;;;;33.13;33.76;97960.81;5056635;28;19924;-91
2023/06/23 01:13:52;;;;;;;;;;;;;;;33.12;33.71;97958.44;5047859;28;20360;-90
2023/06/23 01:16:26;;;;;;;;;;;;;;;32.92;33.81;97953.53;5055223;28;19921;-90
2023/06/23 01:18:57;;;;;;;;;;;;;;;32.90;34.59;97947.56;5045491;28;19921;-89
2023/06/23 01:21:38;;;;;;;;;;;;;;;33.03;34.02;97941.53;5038259;28;20441;-90
2023/06/23 01:24:11;;;;;;;;;;;;;;;33.43;33.28;97945.13;5051191;28;20035;-91
2023/06/23 01:26:55;;;;;;;;;;;;;;;33.60;32.88;97936.78;5053633;28;19921;-91
2023/06/23 01:29:31;;;;;;;;;;;;;;;33.58;32.88;97925.13;5052516;28;19921;-91
2023/06/23 01:31:57;;;;;;;;;;;;;;;33.77;32.95;97925.53;5047596;28;20392;-90
2023/06/23 01:34:26;;;;;;;;;;;;;;;33.88;32.80;97925.63;5051989;28;19963;-90
2023/06/23 01:37:00;;;;;;;;;;;;;;;34.11;31.98;97935.16;5038823;28;19921;-91
2023/06/23 01:39:30;;;;;;;;;;;;;;;34.41;31.75;97940.06;5047830;28;19924;-91
2023/06/23 01:42:04;;;;;;;;;;;;;;;34.55;31.67;97935.50;5049018;28;20021;-91
2023/06/23 01:44:32;;;;;;;;;;;;;;;34.26;32.07;97932.97;5039467;28;19937;-90
2023/06/23 01:47:01;;;;;;;;;;;;;;;33.99;32.21;97937.91;5047758;28;19928;-91
2023/06/23 01:49:30;;;;;;;;;;;;;;;34.00;32.37;97936.59;5044681;28;19947;-91
2023/06/23 01:51:56;;;;;;;;;;;;;;;33.83;32.64;97938.53;5046311;28;20055;-90
2023/06/23 01:54:23;;;;;;;;;;;;;;;32.82;34.74;97939.94;5046340;28;19921;-91
2023/06/23 01:56:50;;;;;;;;;;;;;;;33.00;34.46;97939.69;5052422;28;19971;-91
2023/06/23 01:59:17;;;;;;;;;;;;;;;33.34;34.18;97930.25;5051098;28;19975;-91
2023/06/23 02:01:45;;;;;;;;;;;;;;;33.59;33.63;97917.34;5052489;28;19927;-90
2023/06/23 02:04:11;;;;;;;;;;;;;;;33.14;34.33;97907.53;5050981;28;19928;-91
2023/06/23 02:06:38;;;;;;;;;;;;;;;33.03;34.49;97910.25;5053246;28;19927;-91
2023/06/23 02:09:06;;;;;;;;;;;;;;;33.02;34.50;97900.94;5043899;28;19967;-91
2023/06/23 02:11:33;;;;;;;;;;;;;;;32.99;34.53;97889.75;5045563;28;19921;-92
2023/06/23 02:14:00;;;;;;;;;;;;;;;33.39;33.57;97887.63;5054664;28;19979;-92
2023/06/23 02:16:28;;;;;;;;;;;;;;;33.53;33.15;97888.81;5054950;28;19964;-91
2023/06/23 02:18:54;;;;;;;;;;;;;;;33.33;33.34;97886.78;5051545;28;19925;-90
2023/06/23 02:21:22;;;;;;;;;;;;;;;32.94;34.34;97871.31;5048073;28;20334;-90
2023/06/23 02:23:49;;;;;;;;;;;;;;;32.20;35.45;97861.56;5044013;28;19927;-92
2023/06/23 02:26:15;;;;;;;;;;;;;;;32.24;35.58;97856.44;5046708;28;19924;-90
2023/06/23 02:28:42;;;;;;;;;;;;;;;32.44;35.16;97858.53;5047615;28;19916;-91
2023/06/23 02:31:09;;;;;;;;;;;;;;;32.64;34.88;97861.41;5050235;28;20442;-90
2023/06/23 02:33:35;;;;;;;;;;;;;;;32.81;34.55;97855.91;5049129;28;19921;-91
2023/06/23 02:36:02;;;;;;;;;;;;;;;32.75;34.97;97862.31;5052127;28;19928;-91
2023/06/23 02:38:29;;;;;;;;;;;;;;;32.62;35.25;97881.81;5046727;28;19921;-91
2023/06/23 02:40:56;;;;;;;;;;;;;;;33.38;34.11;97888.13;5049000;28;19924;-91
2023/06/23 02:43:32;;;;;;;;;;;;;;;33.42;33.50;97883.75;5043532;28;19924;-91
2023/06/23 02:46:00;;;;;;;;;;;;;;;32.86;34.37;97878.72;5047675;28;20007;-91
2023/06/23 02:48:33;;;;;;;;;;;;;;;32.85;34.60;97868.63;5049099;28;20007;-91
2023/06/23 02:51:01;;;;;;;;;;;;;;;33.10;34.16;97867.13;5047687;28;19924;-91
2023/06/23 02:53:28;;;;;;;;;;;;;;;33.63;32.86;97878.78;5052124;28;19935;-91
2023/06/23 02:56:00;;;;;;;;;;;;;;;33.52;33.39;97872.19;5051955;28;19924;-90
2023/06/23 02:58:27;;;;;;;;;;;;;;;32.80;34.69;97865.72;5049391;28;20368;-92
2023/06/23 03:00:53;;;;;;;;;;;;;;;32.62;35.22;97876.13;5047077;28;19924;-91
2023/06/23 03:03:19;;;;;;;;;;;;;;;33.38;33.56;97882.41;5050582;28;19924;-92
2023/06/23 03:05:45;;;;;;;;;;;;;;;33.67;33.33;97892.81;5051011;28;20346;-92
2023/06/23 03:08:11;;;;;;;;;;;;;;;33.28;33.89;97893.19;5045979;28;19975;-91
2023/06/23 03:10:38;;;;;;;;;;;;;;;33.25;34.15;97896.28;5052748;28;19982;-91
2023/06/23 03:13:04;;;;;;;;;;;;;;;33.20;34.62;97892.09;5043567;28;19928;-91
2023/06/23 03:15:30;;;;;;;;;;;;;;;33.76;33.62;97904.81;5051348;28;19928;-91
2023/06/23 03:18:00;;;;;;;;;;;;;;;33.96;33.33;97892.53;5045156;28;20422;-92
2023/06/23 03:20:31;;;;;;;;;;;;;;;33.82;33.49;97899.94;5054399;28;19962;-91
2023/06/23 03:23:04;;;;;;;;;;;;;;;34.04;33.59;97911.56;5053361;28;19922;-92
2023/06/23 03:25:30;;;;;;;;;;;;;;;34.22;33.57;97918.94;5053601;28;19921;-91
2023/06/23 03:27:59;;;;;;;;;;;;;;;34.72;32.46;97922.13;5050262;28;20452;-92
2023/06/23 03:30:28;;;;;;;;;;;;;;;35.10;31.71;97915.03;5054456;28;19986;-92
2023/06/23 03:32:57;;;;;;;;;;;;;;;35.31;31.96;97922.88;5053092;28;19931;-91
2023/06/23 03:35:28;;;;;;;;;;;;;;;35.79;30.75;97925.59;5046293;28;20388;-91
2023/06/23 03:37:57;;;;;;;;;;;;;;;35.68;31.08;97934.16;5053280;28;19924;-92
2023/06/23 03:40:23;;;;;;;;;;;;;;;35.58;31.32;97926.34;5039746;28;19921;-92
2023/06/23 03:43:04;;;;;;;;;;;;;;;35.58;31.55;97927.13;5049333;28;19933;-91
2023/06/23 03:45:30;;;;;;;;;;;;;;;35.83;31.77;97939.59;5048536;28;20526;-92
2023/06/23 03:48:01;;;;;;;;;;;;;;;36.43;30.70;97947.41;5053175;28;19982;-91
2023/06/23 03:50:30;;;;;;;;;;;;;;;36.94;30.29;97953.84;5053116;28;19917;-92
2023/06/23 03:52:58;;;;;;;;;;;;;;;37.16;29.49;97965.97;5049570;28;19957;-93
2023/06/23 03:55:26;;;;;;;;;;;;;;;37.34;29.20;97962.50;5051794;28;19966;-92
2023/06/23 03:57:52;;;;;;;;;;;;;;;37.58;29.00;97950.41;5048367;28;19921;-92
2023/06/23 04:00:20;;;;;;;;;;;;;;;37.75;28.80;97953.97;5052547;28;20264;-91
2023/06/23 04:02:47;;;;;;;;;;;;;;;37.86;28.26;97953.13;5049799;28;20441;-91
2023/06/23 04:05:15;;;;;;;;;;;;;;;37.94;27.98;97934.06;5047476;28;19921;-92
2023/06/23 04:07:43;;;;;;;;;;;;;;;37.62;27.99;97932.97;5049386;28;19925;-92
2023/06/23 04:10:10;;;;;;;;;;;;;;;37.38;28.55;97922.94;5039597;28;19921;-91
2023/06/23 04:12:37;;;;;;;;;;;;;;;37.07;29.09;97922.56;5051246;28;19943;-92
2023/06/23 04:15:08;;;;;;;;;;;;;;;37.18;29.53;97926.13;5050634;28;19986;-92
2023/06/23 04:17:37;;;;;;;;;;;;;;;37.28;29.31;97932.34;5049495;28;19921;-90
2023/06/23 04:20:05;;;;;;;;;;;;;;;37.67;28.75;97935.00;5050902;28;19955;-90
2023/06/23 04:22:33;;;;;;;;;;;;;;;37.84;28.33;97927.09;5046189;28;19924;-92
2023/06/23 04:25:00;;;;;;;;;;;;;;;37.78;28.70;97915.66;5050395;28;20021;-93
2023/06/23 04:27:27;;;;;;;;;;;;;;;37.36;29.66;97904.72;5054555;28;19916;-90
2023/06/23 04:29:55;;;;;;;;;;;;;;;37.09;30.12;97897.03;5052082;28;19921;-89
2023/06/23 04:32:21;;;;;;;;;;;;;;;36.98;30.26;97897.88;5053664;28;19916;-89
2023/06/23 04:34:47;;;;;;;;;;;;;;;37.12;29.91;97901.72;5047150;28;20393;-90
2023/06/23 04:37:30;;;;;;;;;;;;;;;37.26;29.78;97907.09;5052271;28;19921;-89
2023/06/23 04:40:07;;;;;;;;;;;;;;;37.70;30.35;97920.38;5048886;28;19960;-90
2023/06/23 04:42:38;;;;;;;;;;;;;;;38.40;28.65;97930.25;5049724;28;19921;-90
2023/06/23 04:45:05;;;;;;;;;;;;;;;38.34;28.14;97927.47;5050166;28;19932;-91
2023/06/23 04:47:33;;;;;;;;;;;;;;;37.97;28.93;97925.16;5052086;28;19921;-90
2023/06/23 04:50:02;;;;;;;;;;;;;;;37.76;29.17;97926.09;5051524;28;20033;-91
2023/06/23 04:52:29;;;;;;;;;;;;;;;37.63;29.36;97911.56;5050170;28;20332;-89
2023/06/23 04:54:58;;;;;;;;;;;;;;;37.40;29.87;97899.50;5055976;28;20296;-90
2023/06/23 04:57:27;;;;;;;;;;;;;;;37.43;29.00;97881.25;5054740;28;20376;-90
2023/06/23 04:59:54;;;;;;;;;;;;;;;37.21;29.81;97882.13;5051567;28;19921;-89
2023/06/23 05:02:20;;;;;;;;;;;;;;;36.94;30.16;97883.06;5041613;28;19925;-89
2023/06/23 05:04:48;;;;;;;;;;;;;;;36.77;30.38;97875.81;5050128;28;20007;-87
2023/06/23 05:07:16;;;;;;;;;;;;;;;37.09;30.16;97892.09;5047948;28;19927;-89
2023/06/23 05:09:46;;;;;;;;;;;;;;;37.43;29.73;97894.78;5049021;28;20004;-92
2023/06/23 05:12:14;;;;;;;;;;;;;;;37.34;30.20;97893.00;5048045;28;20400;-89
2023/06/23 05:14:42;;;;;;;;;;;;;;;37.68;30.06;97884.97;5048270;28;20358;-88
2023/06/23 05:17:09;;;;;;;;;;;;;;;38.00;28.80;97897.50;5049494;28;19921;-85
2023/06/23 05:19:36;;;;;;;;;;;;;;;37.85;29.32;97892.16;5049611;28;19921;-87
2023/06/23 05:22:08;;;;;;;;;;;;;;;37.83;29.52;97889.03;5052604;28;20368;-93
2023/06/23 05:24:42;;;;;;;;;;;;;;;37.89;29.38;97895.50;5049879;28;19982;-90
2023/06/23 05:27:09;;;;;;;;;;;;;;;37.60;29.61;97912.66;5051165;28;20334;-89
2023/06/23 05:29:43;;;;;;;;;;;;;;;37.72;29.27;97903.44;5051356;28;19932;-90
2023/06/23 05:32:11;;;;;;;;;;;;;;;37.64;30.04;97907.41;5047579;28;19929;-87
2023/06/23 05:34:39;;;;;;;;;;;;;;;38.23;30.13;97901.72;5042139;28;19921;-90
2023/06/23 05:37:06;;;;;;;;;;;;;;;38.67;29.28;97912.00;5050241;28;19921;-89
2023/06/23 05:39:33;;;;;;;;;;;;;;;38.66;29.33;97898.94;5042017;28;19931;-90
2023/06/23 05:42:00;;;;;;;;;;;;;;;38.64;29.13;97893.75;5050858;28;19921;-89
2023/06/23 05:44:26;;;;;;;;;;;;;;;38.75;29.54;97880.59;5048709;28;19925;-90
2023/06/23 05:46:56;;;;;;;;;;;;;;;38.74;28.84;97876.97;5044373;28;20372;-89
2023/06/23 05:49:23;;;;;;;;;;;;;;;38.70;29.59;97882.19;5047685;28;20015;-94
2023/06/23 05:51:53;;;;;;;;;;;;;;;38.72;29.11;97879.56;5050155;28;19959;-94
2023/06/23 05:54:20;;;;;;;;;;;;;;;38.64;29.14;97870.78;5057573;28;19921;-93
2023/06/23 05:56:54;;;;;;;;;;;;;;;39.09;29.12;97870.25;5042976;28;19917;-94
2023/06/23 05:59:23;;;;;;;;;;;;;;;39.57;29.82;97866.41;5045862;28;19929;-89
2023/06/23 06:01:51;;;;;;;;;;;;;;;39.36;29.27;97861.25;5049592;28;19935;-90
2023/06/23 06:04:19;;;;;;;;;;;;;;;38.52;29.61;97857.88;5048314;28;19920;-93
2023/06/23 06:06:46;;;;;;;;;;;;;;;38.86;29.74;97848.91;5044431;28;19922;-88
2023/06/23 06:09:13;;;;;;;;;;;;;;;39.14;29.02;97850.03;5049694;28;19924;-92
2023/06/23 06:11:41;;;;;;;;;;;;;;;39.04;28.95;97842.38;5056237;28;19917;-91
2023/06/23 06:14:08;;;;;;;;;;;;;;;38.63;30.43;97840.53;5054699;28;19982;-92
2023/06/23 06:16:35;;;;;;;;;;;;;;;38.65;29.76;97840.75;5055177;28;20265;-91
2023/06/23 06:19:01;;;;;;;;;;;;;;;39.14;29.78;97849.28;5055082;28;19923;-93
2023/06/23 06:21:28;;;;;;;;;;;;;;;39.81;28.83;97852.72;5055753;28;20004;-92
2023/06/23 06:23:56;;;;;;;;;;;;;;;39.99;28.11;97862.59;5051608;28;19921;-92
2023/06/23 06:26:22;;;;;;;;;;;;;;;40.19;28.26;97869.88;5035641;28;19918;-92
2023/06/23 06:28:49;;;;;;;;;;;;;;;40.42;26.94;97891.16;5035509;28;19917;-93
2023/06/23 06:31:16;;;;;;;;;;;;;;;38.61;29.95;98005.97;5038133;28;20391;-91
2023/06/23 06:33:44;;;;;;;;;;;;;;;35.61;32.77;97983.22;5055065;28;20389;-89
2023/06/23 06:36:10;;;;;;;;;;;;;;;35.58;32.67;97980.59;5054525;28;19921;-86
2023/06/23 06:38:37;;;;;;;;;;;;;;;34.61;33.85;97994.13;5054847;28;19917;-87
2023/06/23 06:41:05;;;;;;;;;;;;;;;34.23;33.38;97993.81;5049274;28;19971;-88
2023/06/23 06:43:32;;;;;;;;;;;;;;;34.34;33.04;97991.06;5035313;28;19963;-89
2023/06/23 06:45:59;;;;;;;;;;;;;;;34.02;32.78;97987.41;5039499;28;19932;-90
2023/06/23 06:48:26;;;;;;;;;;;;;;;32.68;35.02;97984.22;5033914;28;19917;-91
2023/06/23 06:50:53;;;;;;;;;;;;;;;33.31;33.71;97994.66;5035127;28;19978;-91
2023/06/23 06:53:20;;;;;;;;;;;;;;;33.21;33.75;97981.09;5035064;28;20335;-92
2023/06/23 06:55:47;;;;;;;;;;;;;;;34.05;32.61;97994.97;5038567;28;19922;-89
2023/06/23 06:58:13;;;;;;;;;;;;;;;35.75;29.88;97987.16;5048651;28;19983;-91
2023/06/23 07:00:39;;;;;;;;;;;;;;;36.67;28.13;97970.53;5034853;28;19925;-90
2023/06/23 07:03:05;;;;;;;;;;;;;;;37.23;27.97;97953.19;5034891;28;19917;-90
2023/06/23 07:05:32;;;;;;;;;;;;;;;37.55;27.36;97940.03;5035067;28;19986;-90
2023/06/23 07:07:58;;;;;;;;;;;;;;;37.34;27.24;97919.53;5050447;28;20051;-90
2023/06/23 07:10:24;;;;;;;;;;;;;;;36.94;27.97;97908.84;5053010;28;19913;-89
2023/06/23 07:12:50;;;;;;;;;;;;;;;36.46;29.11;97914.94;5053612;28;19921;-89
2023/06/23 07:15:17;;;;;;;;;;;;;;;36.72;28.18;97900.28;5047046;28;19921;-89
2023/06/23 07:17:43;;;;;;;;;;;;;;;37.25;27.56;97910.50;5047283;28;19927;-90
2023/06/23 07:20:09;;;;;;;;;;;;;;;37.52;27.23;97917.38;5054081;28;19924;-90
2023/06/23 07:22:35;;;;;;;;;;;;;;;37.35;27.46;97892.47;5054606;28;19963;-90
2023/06/23 07:25:01;;;;;;;;;;;;;;;37.37;27.71;97904.19;5054379;28;19923;-90
2023/06/23 07:27:27;;;;;;;;;;;;;;;37.63;27.83;97909.50;5054518;28;19921;-90
2023/06/23 07:29:53;;;;;;;;;;;;;;;37.52;28.00;97923.13;5054505;28;19916;-90
2023/06/23 07:32:19;;;;;;;;;;;;;;;37.82;27.42;97939.09;5050754;28;19921;-90
2023/06/23 07:34:45;;;;;;;;;;;;;;;37.48;28.52;97946.34;5052972;28;20008;-90
2023/06/23 07:37:12;;;;;;;;;;;;;;;36.73;29.12;97953.38;5054568;28;19939;-90
2023/06/23 07:39:38;;;;;;;;;;;;;;;35.79;30.58;97957.03;5050275;28;19964;-90
2023/06/23 07:42:04;;;;;;;;;;;;;;;35.67;30.83;97966.88;5032911;28;19917;-90
2023/06/23 07:44:31;;;;;;;;;;;;;;;35.56;30.38;97969.72;5034420;28;19936;-91
2023/06/23 07:46:58;;;;;;;;;;;;;;;35.73;30.31;97970.50;5052435;28;20059;-91
2023/06/23 07:49:24;;;;;;;;;;;;;;;36.09;29.57;97968.75;5045666;28;19957;-90
2023/06/23 07:51:50;;;;;;;;;;;;;;;36.42;29.80;97973.69;5034439;28;19921;-91
2023/06/23 07:54:16;;;;;;;;;;;;;;;36.71;28.87;97968.19;5033946;28;19917;-90
2023/06/23 07:56:42;;;;;;;;;;;;;;;36.83;28.30;97966.06;5035488;28;19924;-91
2023/06/23 07:59:08;;;;;;;;;;;;;;;36.56;29.50;97953.41;5033876;28;19916;-90
2023/06/23 08:01:34;;;;;;;;;;;;;;;36.35;29.65;97959.91;5034345;28;19960;-90
2023/06/23 08:04:00;;;;;;;;;;;;;;;36.14;30.01;97965.13;5041196;28;19973;-90
2023/06/23 08:06:26;;;;;;;;;;;;;;;35.93;30.40;97973.16;5048296;28;19927;-90
2023/06/23 08:08:52;;;;;;;;;;;;;;;35.99;30.49;97958.88;5053047;28;20008;-91
2023/06/23 08:11:18;;;;;;;;;;;;;;;35.96;30.64;97966.41;5040835;28;19920;-90
2023/06/23 08:13:45;;;;;;;;;;;;;;;36.08;30.42;97967.97;5033944;28;19917;-91
2023/06/23 08:16:11;;;;;;;;;;;;;;;36.28;30.11;97964.06;5033745;28;19917;-91
2023/06/23 08:18:37;;;;;;;;;;;;;;;36.41;30.11;97963.56;5046967;28;19943;-91
2023/06/23 08:21:03;;;;;;;;;;;;;;;36.44;30.02;97973.94;5053571;28;19927;-91
2023/06/23 08:23:29;;;;;;;;;;;;;;;36.30;30.04;97972.13;5045779;28;19917;-91
2023/06/23 08:25:55;;;;;;;;;;;;;;;36.23;30.40;97976.28;5052307;28;19923;-91
2023/06/23 08:28:21;;;;;;;;;;;;;;;36.23;30.58;97966.94;5053847;28;19928;-91
2023/06/23 08:30:47;;;;;;;;;;;;;;;36.37;30.68;97966.66;5054193;28;19923;-91
2023/06/23 08:33:13;;;;;;;;;;;;;;;36.38;30.53;97964.59;5053618;28;19917;-91
2023/06/23 08:35:39;;;;;;;;;;;;;;;36.46;30.31;97962.78;5052817;28;19920;-91
2023/06/23 08:38:05;;;;;;;;;;;;;;;36.14;30.31;97962.25;5050362;28;19927;-91
2023/06/23 08:40:31;;;;;;;;;;;;;;;35.88;31.13;97967.41;5043312;28;19975;-91
2023/06/23 08:42:57;;;;;;;;;;;;;;;36.02;31.54;97972.91;5033646;28;19971;-91
2023/06/23 08:45:24;;;;;;;;;;;;;;;36.14;31.45;97978.63;5033831;28;19948;-92
2023/06/23 08:47:52;;;;;;;;;;;;;;;35.92;31.69;97970.78;5033869;28;19928;-91
2023/06/23 08:50:20;;;;;;;;;;;;;;;35.95;31.73;97970.53;5033762;28;20332;-91
2023/06/23 08:52:46;;;;;;;;;;;;;;;36.04;31.79;97967.47;5045802;28;19920;-92
2023/06/23 08:55:12;;;;;;;;;;;;;;;35.77;32.12;97956.75;5053910;28;19959;-91
2023/06/23 08:57:39;;;;;;;;;;;;;;;36.15;32.00;97957.34;5049492;28;19920;-91
2023/06/23 09:00:06;;;;;;;;;;;;;;;36.15;31.47;97954.47;5053214;28;19921;-91
2023/06/23 09:02:32;;;;;;;;;;;;;;;34.93;33.20;97956.97;5053577;28;20355;-92
2023/06/23 09:04:59;;;;;;;;;;;;;;;34.67;33.69;97977.84;5053040;28;19928;-89
2023/06/23 09:07:26;;;;;;;;;;;;;;;34.50;34.15;97979.78;5053081;28;19924;-92
2023/06/23 09:09:52;;;;;;;;;;;;;;;35.40;33.19;97979.00;5053700;28;19917;-91
2023/06/23 09:12:20;;;;;;;;;;;;;;;34.80;34.12;97976.63;5057109;28;19912;-92
2023/06/23 09:14:48;;;;;;;;;;;;;;;35.41;33.98;97977.69;5045548;28;19925;-91
2023/06/23 09:17:15;;;;;;;;;;;;;;;35.94;31.93;97983.25;5036971;28;19918;-91
2023/06/23 09:19:42;;;;;;;;;;;;;;;36.38;31.11;97979.69;5036554;28;19924;-92
2023/06/23 09:22:09;;;;;;;;;;;;;;;36.23;31.61;97972.66;5036125;28;19921;-92
2023/06/23 09:24:38;;;;;;;;;;;;;;;36.68;31.32;97965.59;5039641;28;19928;-91
2023/06/23 09:27:04;;;;;;;;;;;;;;;36.83;30.82;97966.06;5056333;28;20380;-92
2023/06/23 09:29:30;;;;;;;;;;;;;;;36.69;30.57;97958.56;5057058;28;20015;-90
2023/06/23 09:31:59;;;;;;;;;;;;;;;37.08;30.04;97964.22;5044447;28;20372;-92
2023/06/23 09:34:26;;;;;;;;;;;;;;;36.94;30.79;97971.81;5036697;28;20288;-92
2023/06/23 09:36:52;;;;;;;;;;;;;;;37.28;29.63;97969.56;5036316;28;20262;-91
2023/06/23 09:39:19;;;;;;;;;;;;;;;37.43;29.49;97978.66;5047452;28;20266;-92
2023/06/23 09:41:48;;;;;;;;;;;;;;;37.21;30.65;97979.50;5056296;28;19924;-92
2023/06/23 09:44:14;;;;;;;;;;;;;;;36.99;30.13;97973.88;5055177;28;20384;-91
2023/06/23 09:46:41;;;;;;;;;;;;;;;36.99;30.01;97985.34;5056191;28;20304;-91
2023/06/23 09:49:07;;;;;;;;;;;;;;;37.12;29.97;97974.06;5042036;28;19924;-92
2023/06/23 09:51:37;;;;;;;;;;;;;;;37.36;30.13;97977.09;5049385;28;19921;-92
2023/06/23 09:54:03;;;;;;;;;;;;;;;37.60;29.68;97979.31;5055906;28;19921;-93
2023/06/23 09:56:29;;;;;;;;;;;;;;;37.83;29.45;97972.16;5038530;28;19924;-92
2023/06/23 09:58:55;;;;;;;;;;;;;;;38.06;29.21;97995.75;5056237;28;19924;-92
2023/06/23 10:01:22;;;;;;;;;;;;;;;38.55;28.66;97997.44;5055853;28;19921;-92
2023/06/23 10:03:52;;;;;;;;;;;;;;;38.42;29.70;98003.03;5055430;28;19921;-92
2023/06/23 10:06:22;;;;;;;;;;;;;;;37.46;29.99;97996.88;5052362;28;20012;-92
2023/06/23 10:08:48;;;;;;;;;;;;;;;36.92;31.24;97993.69;5055552;28;19928;-92
2023/06/23 10:11:18;;;;;;;;;;;;;;;37.59;30.74;97985.59;5054638;28;19921;-92
2023/06/23 10:13:46;;;;;;;;;;;;;;;37.96;29.59;97989.56;5055249;28;19972;-92
2023/06/23 10:16:12;;;;;;;;;;;;;;;38.11;29.30;97985.53;5055535;28;20392;-92
2023/06/23 10:18:39;;;;;;;;;;;;;;;38.26;30.37;97985.91;5055585;28;20007;-92
2023/06/23 10:21:05;;;;;;;;;;;;;;;38.66;29.50;97988.72;5055655;28;19920;-92
2023/06/23 10:23:32;;;;;;;;;;;;;;;39.49;28.91;97978.34;5037366;28;19925;-92
2023/06/23 10:25:59;;;;;;;;;;;;;;;39.96;29.18;97973.00;5035598;28;20357;-92
2023/06/23 10:28:26;;;;;;;;;;;;;;;40.42;28.25;97971.75;5034663;28;19917;-93
2023/06/23 10:30:53;;;;;;;;;;;;;;;40.47;27.09;97973.78;5035897;28;19917;-92
2023/06/23 10:33:19;;;;;;;;;;;;;;;40.13;26.72;97964.91;5035779;28;19924;-93
2023/06/23 10:35:47;;;;;;;;;;;;;;;39.83;27.51;97956.47;5035286;28;19957;-93
2023/06/23 10:38:20;;;;;;;;;;;;;;;39.63;28.55;97965.66;5035958;28;19921;-93
2023/06/23 10:40:49;;;;;;;;;;;;;;;39.87;27.74;97970.53;5044490;28;19929;-92
2023/06/23 10:43:15;;;;;;;;;;;;;;;39.74;27.67;97968.38;5046551;28;19927;-94
2023/06/23 10:45:44;;;;;;;;;;;;;;;39.52;28.51;97988.78;5049119;28;21377;-93
2023/06/23 10:48:11;;;;;;;;;;;;;;;39.52;28.09;97982.25;5053315;28;19932;-93
2023/06/23 10:50:38;;;;;;;;;;;;;;;39.34;27.53;97978.06;5050833;28;20011;-94
2023/06/23 10:53:11;;;;;;;;;;;;;;;39.45;28.02;97986.53;5046117;28;19916;-95
2023/06/23 10:55:41;;;;;;;;;;;;;;;39.90;27.66;97992.44;5053035;28;19917;-94
2023/06/23 10:58:11;;;;;;;;;;;;;;;39.85;28.05;97987.56;5054764;28;20030;-96
2023/06/23 11:00:37;;;;;;;;;;;;;;;40.20;27.98;97998.78;5049348;28;20351;-93
2023/06/23 11:03:10;;;;;;;;;;;;;;;40.50;27.60;97984.97;5054967;28;20011;-92
2023/06/23 11:05:40;;;;;;;;;;;;;;;40.67;26.11;97981.78;5054621;28;20270;-91
2023/06/23 11:08:08;;;;;;;;;;;;;;;40.32;27.64;97987.88;5051964;28;19925;-92
2023/06/23 11:10:47;;;;;;;;;;;;;;;40.41;27.70;97973.84;5053819;28;19917;-90
2023/06/23 11:13:13;;;;;;;;;;;;;;;40.57;27.69;97960.50;5048528;28;19917;-91
2023/06/23 11:15:40;;;;;;;;;;;;;;;40.43;28.11;97962.59;5054703;28;20020;-91
2023/06/23 11:18:06;;;;;;;;;;;;;;;40.41;28.54;97967.31;5053273;28;20012;-92
2023/06/23 11:20:35;;;;;;;;;;;;;;;40.24;27.63;97958.97;5054493;28;19959;-92
2023/06/23 11:23:05;;;;;;;;;;;;;;;40.09;27.72;97950.06;5054759;28;19978;-91
2023/06/23 11:25:33;;;;;;;;;;;;;;;40.16;28.50;97946.56;5054672;28;19990;-91
2023/06/23 11:28:17;;;;;;;;;;;;;;;40.01;28.02;97941.31;5054426;28;19963;-92
2023/06/23 11:31:03;;;;;;;;;;;;;;;39.80;28.58;97942.41;5043133;28;19975;-91
2023/06/23 11:33:30;;;;;;;;;;;;;;;39.74;28.79;97951.13;5044472;28;20483;-92
2023/06/23 11:36:00;;;;;;;;;;;;;;;39.69;28.64;97954.06;5038438;28;19921;-90
2023/06/23 11:38:29;;;;;;;;;;;;;;;39.85;28.35;97973.16;5049907;28;19983;-94
2023/06/23 11:40:56;;;;;;;;;;;;;;;39.51;29.18;97983.59;5034311;28;19996;-95
2023/06/23 11:43:23;;;;;;;;;;;;;;;39.03;30.44;97993.03;5049693;28;20257;-87
2023/06/23 11:45:56;;;;;;;;;;;;;;;38.77;30.75;97982.09;5043968;28;19973;-91
2023/06/23 11:48:26;;;;;;;;;;;;;;;38.52;30.62;97966.94;5043080;28;19974;-91
2023/06/23 11:50:56;;;;;;;;;;;;;;;38.15;31.96;97943.78;5050524;28;19920;-91
2023/06/23 11:53:22;;;;;;;;;;;;;;;37.50;32.38;97948.66;5053682;28;19920;-94
2023/06/23 11:55:49;;;;;;;;;;;;;;;37.53;32.17;97944.75;5048730;28;19928;-94
2023/06/23 11:58:16;;;;;;;;;;;;;;;38.27;31.67;97958.81;5044149;28;19921;-90
2023/06/23 12:00:42;;;;;;;;;;;;;;;38.91;30.28;97962.91;5053226;28;19917;-95
2023/06/23 12:03:11;;;;;;;;;;;;;;;38.86;30.08;97978.09;5047179;28;19932;-95
2023/06/23 12:05:40;;;;;;;;;;;;;;;38.75;30.56;97992.56;5053962;28;19923;-94
2023/06/23 12:08:07;;;;;;;;;;;;;;;38.85;30.19;97996.63;5054557;28;19917;-94
2023/06/23 12:10:36;;;;;;;;;;;;;;;39.07;30.28;97999.28;5055155;28;19923;-95
2023/06/23 12:13:02;;;;;;;;;;;;;;;38.92;29.83;97993.16;5053404;28;19924;-93
2023/06/23 12:15:29;;;;;;;;;;;;;;;38.84;30.99;97975.00;5051824;28;19952;-92
2023/06/23 12:17:58;;;;;;;;;;;;;;;39.01;30.68;97964.84;5052634;28;19955;-92
2023/06/23 12:20:24;;;;;;;;;;;;;;;39.11;30.37;97945.94;5052748;28;20277;-94
2023/06/23 12:22:50;;;;;;;;;;;;;;;39.31;29.60;97947.53;5050513;28;19925;-94
2023/06/23 12:25:20;;;;;;;;;;;;;;;39.36;29.64;97950.34;5049416;28;19967;-93
2023/06/23 12:27:49;;;;;;;;;;;;;;;39.40;29.62;97949.25;5049398;28;19921;-96
2023/06/23 12:30:19;;;;;;;;;;;;;;;38.56;31.22;97940.78;5047767;28;19928;-92
2023/06/23 12:32:45;;;;;;;;;;;;;;;37.51;32.72;97939.53;5041806;28;19929;-91
2023/06/23 12:35:14;;;;;;;;;;;;;;;37.02;33.55;97931.94;5041106;28;20000;-91
2023/06/23 12:37:45;;;;;;;;;;;;;;;37.46;33.08;97931.75;5038886;28;20058;-89
2023/06/23 12:40:28;;;;;;;;;;;;;;;38.28;31.95;97932.47;5052168;28;19966;-90
2023/06/23 12:42:55;;;;;;;;;;;;;;;38.65;31.81;97955.56;5046927;28;19924;-88
2023/06/23 12:45:24;;;;;;;;;;;;;;;39.03;30.80;97970.06;5044610;28;20012;-96
2023/06/23 12:48:01;;;;;;;;;;;;;;;38.80;31.44;97983.88;5050185;28;20346;-95
2023/06/23 12:50:34;;;;;;;;;;;;;;;38.74;31.47;97986.06;5053206;28;19968;-94
2023/06/23 12:53:01;;;;;;;;;;;;;;;38.57;31.99;97976.81;5052267;28;19928;-96